Laupheim Air Base

ETHL · Baden-Württemberg, Germania

Storia di METAR ETHL · Laupheim Air Base

Di seguito sono riportati i METAR degli ultimi giorni. Seleziona un anno per sfogliare i METAR più vecchi, dall'anno 2007 in poi.

20 giugno 2024

Tempo Codice Tempo meteorologico Temp. Vista Base nuvolosa Vento METAR/SPECI
20:20
V
23 °C 10 km+ 24.000 ft 230° 230° 3 kt METAR ETHL 201820Z 23003KT 9999 FEW080 SCT150 BKN240 23/19 Q1018 BLU+
19:20
V
24 °C 10 km+ 14.000 ft 030° 030° 2 kt METAR ETHL 201720Z 03002KT 9999 SCT060 BKN140 BKN230 24/20 Q1017 BLU
18:20
V
24 °C 10 km+ 15.000 ft 020° 020° 2 kt METAR ETHL 201620Z 02002KT 9999 FEW030 BKN150 24/19 Q1018 BLU
17:20
V
25 °C 10 km+ 30.000 ft 350° 350° 2 kt METAR ETHL 201520Z 35002KT 9999 FEW070 SCT160 BKN300 25/19 Q1018 BLU+
17:00
V
24 °C 10 km+ 26.000 ft 070° 070° 3 kt METAR ETHL 201500Z 07003KT 9999 FEW070 SCT160 BKN260 24/19 Q1018 BLU+FCST CNL
16:20
V
24 °C 10 km+ 7.000 ft 030° 030° 2 kt METAR ETHL 201420Z 03002KT 9999 BKN070 BKN160 24/18 Q1019 BLU BLU TEMPO AMB
15:20
V
22 °C 10 km+ 8.000 ft 110° 110° 1 kt METAR ETHL 201320Z 11001KT 9999 OVC080 22/18 Q1020 BLU BLU TEMPO AMB
14:20
V
21 °C 10 km+ 10.000 ft 020° 020° 4 kt METAR ETHL 201220Z 02004KT 9999 OVC100 21/17 Q1019 BLU BLU TEMPO AMB
13:20
V
21 °C 10 km+ 12.000 ft 010° 010° 3 kt METAR ETHL 201120Z 01003KT 9999 OVC120 21/17 Q1019 BLU BLU
12:20
V
21 °C 10 km+ 12.000 ft 020° 020° 4 kt METAR ETHL 201020Z 02004KT 9999 BKN120 21/17 Q1019 BLU BLU
11:20
V
21 °C 10 km+ 16.000 ft 070° 070° 3 kt METAR ETHL 200920Z 07003KT 9999 R09/1500D FEW015 BKN160 21/17 Q1019 BLU BLU
10:20
V
19 °C 10 km+ 16.000 ft 050° 050° 3 kt METAR ETHL 200820Z 05003KT 9999 FEW011 BKN160 19/16 Q1020 BLU BLU
09:20
V
18 °C 10 km+ 18.000 ft 060° 060° 4 kt METAR ETHL 200720Z 06004KT 9999 FEW007 SCT120 BKN180 18/15 Q1019 BLU BLU
08:20
V
18 °C 10 km+ 15.000 ft 040° 040° 5 kt METAR ETHL 200620Z 04005KT 9999 SCT007 SCT120 BKN150 18/15 Q1019 BLU BLU TEMPO GRN
08:09
V
17 °C 10 km+ 15.000 ft 070° 070° 6 kt METAR ETHL 200609Z 07006KT 9999 SCT007 SCT120 BKN150 17/15 Q1019 BLU BLU TEMPO GRN
07:20
I
17 °C 10 km+ 800 ft 060° 060° 8 kt METAR ETHL 200520Z 06008KT 9999 FEW006 BKN008 17/15 Q1020 GRN GRN TEMPO YLO
06:20
I
16 °C 10 km+ 800 ft 060° 060° 7 kt METAR ETHL 200420Z 06007KT 9999 SCT006 BKN008 16/15 Q1019 GRN GRN TEMPO YLO
06:12
I
16 °C 10 km+ 800 ft 060° 060° 7 kt METAR ETHL 200412Z 06007KT 9999 SCT006 BKN008 16/15 Q1020 GRN
05:20
M
17 °C 10 km+ 2.300 ft 070° 070° 9 kt METAR ETHL 200320Z 07009KT 9999 SCT012 BKN023 17/15 Q1020 WHT
04:20
M
17 °C 10 km+ 1.200 ft 060° 060° 8 kt METAR ETHL 200220Z 06008KT 9999 BKN012 17/15 Q1020 GRN
03:20
V
17 °C 10 km+ - 030° 030° 6 kt METAR ETHL 200120Z 03006KT 9999 SCT012 SCT250 17/15 Q1020 BLU+
02:20
V
17 °C 10 km+ - 060° 060° 9 kt METAR ETHL 200020Z 06009KT 9999 SCT012 SCT250 17/15 Q1019 BLU+
01:20
V
17 °C 10 km+ - 040° 040° 7 kt METAR ETHL 192320Z 04007KT 9999 FEW250 17/15 Q1019 BLU+
00:20
V
18 °C 10 km+ - 060° 060° 9 kt METAR ETHL 192220Z 06009KT 9999 FEW250 18/16 Q1019 BLU+

19 giugno 2024

Tempo Codice Tempo meteorologico Temp. Vista Base nuvolosa Vento METAR/SPECI
23:20
V
19 °C 10 km+ - 040° 040° 6 kt METAR ETHL 192120Z 04006KT 9999 FEW150 19/16 Q1019 BLU+
22:20
V
20 °C 10 km+ - 050° 050° 8 kt METAR ETHL 192020Z 05008KT 9999 FEW030 SCT110 20/17 Q1019 BLU+
21:20
V
22 °C 10 km+ - 020° 020° 5 kt METAR ETHL 191920Z 02005KT 9999 FEW030 SCT110 22/16 Q1018 BLU+
20:20
V
24 °C 10 km+ - 020° 020° 6 kt METAR ETHL 191820Z 02006KT 9999 FEW050 24/17 Q1018 BLU+
19:20
V
25 °C 10 km+ - 030° 030° 6 kt METAR ETHL 191720Z 03006KT 9999 FEW050 25/18 Q1017 BLU+
18:20
V
26 °C 10 km+ - 020° 020° 7 kt METAR ETHL 191620Z 02007KT 9999 FEW050 26/17 Q1016 BLU+
17:20
V
27 °C 10 km+ - 020° 020° 7 kt METAR ETHL 191520Z 02007KT 9999 FEW050 27/18 Q1015 BLU+
16:57
V
29 °C 10 km+ - 290° 290° 7 kt METAR ETHL 191457Z 29007KT 9999 FEW050 29/14 Q1015 BLU+FCST CNL
16:20
V
28 °C 10 km+ - 290° 290° 5 kt METAR ETHL 191420Z 29005KT 9999 FEW050 28/15 Q1015 BLU+BLU+
15:20
V
28 °C 10 km+ - 230° 230° 4 kt METAR ETHL 191320Z 23004KT 9999 FEW050 28/13 Q1015 BLU+BLU+
14:20
V
27 °C 10 km+ - 030° 030° 4 kt METAR ETHL 191220Z 03004KT 9999 FEW041 27/14 Q1015 BLU+BLU+
13:20
V
26 °C 10 km+ - 100° 100° 5 kt METAR ETHL 191120Z 10005KT 9999 FEW041 26/15 Q1015 BLU+BLU+
12:20
V
25 °C 10 km+ - 130° 130° 7 kt METAR ETHL 191020Z 13007KT 9999 FEW041 25/15 Q1015 BLU+BLU+
11:20
V
24 °C 10 km+ - 090° 090° 5 kt METAR ETHL 190920Z 09005KT 9999 FEW041 24/14 Q1015 BLU+BLU+
10:20
V
23 °C 10 km+ - 040° 040° 4 kt METAR ETHL 190820Z 04004KT 9999 FEW050 23/15 Q1015 BLU+BLU+
09:20
V
22 °C 10 km+ - 090° 090° 8 kt METAR ETHL 190720Z 09008KT 9999 FEW050 22/15 Q1015 BLU+BLU+
08:20
V
20 °C 10 km+ - 100° 100° 3 kt METAR ETHL 190620Z 10003KT 9999 FEW050 20/16 Q1015 BLU+BLU+
07:20
V
19 °C 10 km+ - 100° 100° 3 kt METAR ETHL 190520Z 10003KT 9999 FEW050 19/15 Q1014 BLU+BLU+
06:20
V
17 °C 10 km+ - 090° 090° 2 kt METAR ETHL 190420Z 09002KT 9999 FEW050 SCT340 17/14 Q1014 BLU+BLU+
05:20
V
16 °C 10 km+ - Var Var 2 kt METAR ETHL 190320Z VRB02KT 9999 FEW130 SCT360 16/14 Q1014 BLU+
04:20
V
16 °C 10 km+ - 250° 250° 3 kt METAR ETHL 190220Z 25003KT 9999 FEW150 SCT360 16/14 Q1015 BLU+
03:20
V
16 °C 10 km+ 32.000 ft 290° 290° 4 kt METAR ETHL 190120Z 29004KT 9999 BKN320 16/13 Q1014 BLU+
02:20
V
18 °C 10 km+ 32.000 ft 190° 190° 3 kt METAR ETHL 190020Z 19003KT 9999 BKN320 18/14 Q1014 BLU+
01:20
V
18 °C 10 km+ 30.000 ft 250° 250° 2 kt METAR ETHL 182320Z 25002KT 9999 BKN300 18/14 Q1014 BLU+
00:20
V
19 °C 10 km+ 25.000 ft Var Var 1 kt METAR ETHL 182220Z VRB01KT 9999 BKN250 19/13 Q1013 BLU+

18 giugno 2024

Tempo Codice Tempo meteorologico Temp. Vista Base nuvolosa Vento METAR/SPECI
23:20
V
21 °C 10 km+ 23.000 ft 100° 100° 1 kt METAR ETHL 182120Z 10001KT 9999 FEW150 BKN230 21/13 Q1013 BLU+
22:20
V
24 °C 10 km+ 23.000 ft 330° 330° 1 kt METAR ETHL 182020Z 33001KT 9999 FEW150 BKN230 24/13 Q1013 BLU+
21:20
V
25 °C 10 km+ 20.000 ft 170° 170° 3 kt METAR ETHL 181920Z 17003KT 9999 SCT150 BKN200 25/12 Q1013 BLU+
20:20
V
28 °C 10 km+ 21.000 ft 230° 230° 3 kt METAR ETHL 181820Z 23003KT 9999 SCT150 BKN210 28/10 Q1012 BLU+
19:20
V
29 °C 10 km+ - 270° 270° 7 kt METAR ETHL 181720Z 27007KT 9999 FEW160 SCT300 29/09 Q1013 BLU+
18:30
V
29 °C 10 km+ - 250° 250° 8 kt METAR ETHL 181630Z 25008KT 9999 FEW160 SCT300 29/09 Q1013 BLU+FCST CNL
18:20
V
29 °C 10 km+ 28.000 ft 250° 250° 7 kt METAR ETHL 181620Z 25007KT 9999 FEW160 BKN280 29/08 Q1013 BLU+BLU+
17:20
V
29 °C 10 km+ 21.000 ft 250° 250° 7 kt METAR ETHL 181520Z 25007KT 9999 FEW050 BKN210 29/08 Q1013 BLU+BLU+
16:20
V
29 °C 10 km+ 23.000 ft 240° 240° 10 kt METAR ETHL 181420Z 24010KT 9999 FEW050 BKN230 29/07 Q1014 BLU+BLU+
15:20
V
30 °C 10 km+ 28.000 ft 230° 230° 10 kt METAR ETHL 181320Z 23010KT 9999 FEW050 BKN280 30/07 Q1014 BLU+BLU+
14:20
V
29 °C 10 km+ 33.000 ft 210° 210° 6 kt METAR ETHL 181220Z 21006KT 9999 FEW050 BKN330 29/11 Q1014 BLU+BLU+
13:20
V
28 °C 10 km+ 35.000 ft 150° 150° 5 kt METAR ETHL 181120Z 15005KT 9999 FEW048 BKN350 28/16 Q1015 BLU+BLU+
12:20
V
26 °C 10 km+ 35.000 ft 100° 100° 6 kt METAR ETHL 181020Z 10006KT 9999 BKN350 26/15 Q1015 BLU+BLU+
11:20
V
24 °C 10 km+ 33.000 ft 100° 100° 3 kt METAR ETHL 180920Z 10003KT 9999 BKN330 24/17 Q1016 BLU+BLU+
10:20
V
20 °C 10 km+ 30.000 ft 050° 050° 3 kt METAR ETHL 180820Z 05003KT 9999 BKN300 20/16 Q1016 BLU+BLU+
09:20
V
17 °C 10 km+ 30.000 ft 030° 030° 1 kt METAR ETHL 180720Z 03001KT 9999 FEW003 BKN300 17/14 Q1016 BLU+BLU+
08:46
M
16 °C 5 km 30.000 ft Var Var 2 kt METAR ETHL 180646Z VRB02KT 5000 BR FEW002 BKN300 16/14 Q1016 WHT WHT BECMG BLU+
08:20
I
15 °C 1,5 km 30.000 ft 250° 250° 2 kt METAR ETHL 180620Z 25002KT 1500 BR SCT002 BKN300 15/14 Q1017 AMB AMB BECMG BLU+
08:07
L
14 °C 800 m 200 ft 240° 240° 1 kt METAR ETHL 180607Z 24001KT 0800 FG BKN002 14/14 Q1017 AMB AMB BECMG BLU+
Segnala modifiche